Phillipsburg, Ohio
Current Conditions -  °F | °C
As of 8:56 PM on Sunday 25 Jan 2015 (Local Time) from KDAY Reporting Station
Light Snow Light Snow  
Wind Chill: 13°   Ceiling: 1500
Heat Index: 26°   Visibility: 1.5mi
Dew Point: 23°   Wind: 17mph
Humidity: 88%   Direction: 30°NNE
Pressure: 29.77"   Gusts: 24mph
Location:  39.9°N, 84.4°W
Report Text: KDAY 260156Z 03015G21KT 1 1/2SM -SN BR SCT010 BKN015 OVC039 M03/M05 A2977 RMK AO2 SLP089 P0000 T10331050
Loading
Personal Weather Stations






























Interactive Weather Map New forecast layout! Learn more

10-Day Weather Forecast

Advertisements
Track Severe Weather on mobile